Terminal Aerodrome Forecast
Issued by NWS Wilmington, OH

Home | Current Version | Previous Version | Text Only | Print | Product List | Glossary On
Versions: 1 2 3 4 5 6 7 8 9 10 11 12 13 14 15 16 17 18 19 20 21 22 23 24 25 26 27 28 29 30
000
FTUS41 KILN 282300
TAFCVG
TAF
KCVG 282332Z 2900/3006 15005KT P6SM VCSH SCT040
     FM290200 15005KT P6SM SCT040
     FM290600 16004KT P6SM BKN080
     FM291400 19008KT P6SM SCT025
     FM291800 19010G18KT P6SM SCT040
     FM292100 19010G18KT P6SM VCTS BKN040CB
     FM300000 19007KT P6SM SCT040=

USA.gov is the U.S. government's official web portal to all federal, state and local government web resources and services.